createdAt,value
2022-10-05T00:00:27.961Z,30.33
2022-10-05T00:02:56.136Z,28.52
2022-10-05T00:05:32.476Z,28.20
2022-10-05T00:08:19.640Z,29.95
2022-10-05T00:10:47.986Z,33.58
2022-10-05T00:13:27.774Z,33.00
2022-10-05T00:16:13.760Z,28.92
2022-10-05T00:18:41.522Z,26.52
2022-10-05T00:21:22.304Z,28.38
2022-10-05T00:23:50.159Z,30.42
2022-10-05T00:26:22.346Z,26.15
2022-10-05T00:28:50.486Z,30.23
2022-10-05T00:31:24.092Z,23.45
2022-10-05T00:33:52.337Z,27.65
2022-10-05T00:36:19.791Z,25.30
2022-10-05T00:38:47.430Z,23.67
2022-10-05T00:41:30.779Z,29.60
2022-10-05T00:44:22.630Z,29.85
2022-10-05T00:46:50.145Z,32.67
2022-10-05T00:49:58.913Z,29.83
2022-10-05T00:52:48.777Z,26.13
2022-10-05T00:55:27.322Z,31.45
2022-10-05T00:58:07.690Z,26.30
2022-10-05T01:00:59.059Z,28.70
2022-10-05T01:03:34.684Z,24.40
2022-10-05T01:06:29.683Z,30.08
2022-10-05T01:09:13.616Z,33.70
2022-10-05T01:11:54.569Z,31.17
2022-10-05T01:14:34.882Z,27.98
2022-10-05T01:17:17.227Z,28.27
2022-10-05T01:20:03.826Z,26.20
2022-10-05T01:23:08.848Z,29.10
2022-10-05T01:25:57.760Z,30.85
2022-10-05T01:28:35.579Z,27.75
2022-10-05T01:31:09.622Z,30.30
2022-10-05T01:33:40.001Z,28.70
2022-10-05T01:36:31.276Z,34.97
2022-10-05T01:39:24.331Z,28.42
2022-10-05T01:41:54.499Z,26.40
2022-10-05T01:44:35.650Z,31.95
2022-10-05T01:47:39.313Z,31.15
2022-10-05T01:50:28.327Z,32.58
2022-10-05T01:53:45.815Z,27.75
2022-10-05T01:56:23.314Z,31.77
2022-10-05T01:59:23.267Z,27.40
2022-10-05T02:02:09.623Z,26.60
2022-10-05T02:05:02.956Z,38.63
2022-10-05T02:07:34.986Z,25.55
2022-10-05T02:10:14.733Z,25.80
2022-10-05T02:12:44.734Z,28.45
2022-10-05T02:15:21.873Z,25.27
2022-10-05T02:17:56.272Z,27.65
2022-10-05T02:20:28.897Z,28.98
2022-10-05T02:23:06.111Z,29.15
2022-10-05T02:25:46.153Z,25.50
2022-10-05T02:28:22.611Z,26.48
2022-10-05T02:31:01.937Z,25.27
2022-10-05T02:33:32.847Z,30.08
2022-10-05T02:36:17.354Z,22.52
2022-10-05T02:39:15.449Z,26.42
2022-10-05T02:41:50.233Z,29.02
2022-10-05T02:44:45.639Z,27.75
2022-10-05T02:47:21.934Z,31.40
2022-10-05T02:50:00.518Z,24.95
2022-10-05T02:53:06.122Z,31.52
2022-10-05T02:55:43.030Z,25.98
2022-10-05T02:58:23.390Z,31.95
2022-10-05T03:01:07.975Z,25.30
2022-10-05T03:03:41.745Z,30.90
2022-10-05T03:06:17.504Z,31.35
2022-10-05T03:08:44.962Z,31.45
2022-10-05T03:11:30.125Z,25.65
2022-10-05T03:14:18.443Z,30.73
2022-10-05T03:17:20.749Z,31.35
2022-10-05T03:20:01.892Z,28.30
2022-10-05T03:22:52.867Z,29.35
2022-10-05T03:25:38.408Z,30.13
2022-10-05T03:28:16.499Z,31.38
2022-10-05T03:30:43.985Z,30.92
2022-10-05T03:33:33.031Z,30.92
2022-10-05T03:36:18.549Z,31.50
2022-10-05T03:39:26.007Z,34.95
2022-10-05T03:41:54.186Z,30.98
2022-10-05T03:44:31.654Z,37.97
2022-10-05T03:47:25.292Z,30.05
2022-10-05T03:50:19.242Z,32.70
2022-10-05T03:53:13.287Z,28.13
2022-10-05T03:55:48.364Z,28.63
2022-10-05T03:58:28.410Z,35.05
2022-10-05T04:01:01.954Z,32.28
2022-10-05T04:03:52.310Z,31.67
2022-10-05T04:06:25.435Z,31.77
2022-10-05T04:09:17.315Z,36.72
2022-10-05T04:12:02.134Z,40.53
2022-10-05T04:14:53.443Z,33.65
2022-10-05T04:17:40.617Z,36.38
2022-10-05T04:20:23.638Z,36.63
2022-10-05T04:23:23.144Z,34.65
2022-10-05T04:25:56.139Z,29.98
2022-10-05T04:28:50.689Z,33.17
2022-10-05T04:31:36.842Z,31.38
2022-10-05T04:34:26.521Z,44.38
2022-10-05T04:37:03.799Z,28.98
2022-10-05T04:39:42.711Z,28.88
2022-10-05T04:42:15.516Z,33.63
2022-10-05T04:47:16.769Z,29.17
2022-10-05T04:50:01.883Z,36.60
2022-10-05T04:52:30.507Z,34.25
2022-10-05T04:55:22.797Z,29.92
2022-10-05T04:58:14.780Z,29.48
2022-10-05T05:01:06.006Z,30.43
2022-10-05T05:03:45.685Z,31.13
2022-10-05T05:06:30.306Z,35.20
2022-10-05T05:09:16.583Z,28.88
2022-10-05T05:11:52.494Z,36.70
2022-10-05T05:14:31.521Z,29.02
2022-10-05T05:17:43.224Z,28.33
2022-10-05T05:20:28.532Z,30.52
2022-10-05T05:23:27.624Z,31.63
2022-10-05T05:25:59.415Z,26.80
2022-10-05T05:28:53.323Z,29.23
2022-10-05T05:31:35.531Z,32.08
2022-10-05T05:37:09.074Z,31.33
2022-10-05T05:42:23.650Z,33.95
2022-10-05T05:44:56.150Z,35.25
2022-10-05T05:47:28.898Z,29.58
2022-10-05T05:50:07.117Z,26.85
2022-10-05T05:52:51.547Z,27.48
2022-10-05T05:55:29.941Z,32.83
2022-10-05T05:58:17.284Z,48.20
2022-10-05T06:01:04.383Z,26.67
2022-10-05T06:03:42.528Z,25.67
2022-10-05T06:06:16.898Z,30.08
2022-10-05T06:08:53.024Z,33.95
2022-10-05T06:11:54.236Z,29.10
2022-10-05T06:14:41.874Z,34.60
2022-10-05T06:17:42.149Z,31.15
2022-10-05T06:20:56.653Z,32.55
2022-10-05T06:23:59.520Z,27.65
2022-10-05T06:26:55.696Z,34.00
2022-10-05T06:29:32.526Z,30.23
2022-10-05T06:32:09.948Z,31.98
2022-10-05T06:34:58.535Z,41.80
2022-10-05T06:37:44.408Z,40.25
2022-10-05T06:40:29.640Z,33.72
2022-10-05T06:43:22.366Z,31.70
2022-10-05T06:46:42.657Z,39.08
2022-10-05T06:49:44.857Z,40.90
2022-10-05T06:52:51.329Z,31.85
2022-10-05T06:55:38.119Z,29.05
2022-10-05T06:58:31.198Z,36.03
2022-10-05T07:01:10.984Z,37.15
2022-10-05T07:03:45.581Z,43.03
2022-10-05T07:06:22.212Z,42.35
2022-10-05T07:09:19.530Z,28.23
2022-10-05T07:12:12.055Z,32.00
2022-10-05T07:15:07.434Z,32.17
2022-10-05T07:17:57.283Z,29.17
2022-10-05T07:20:44.499Z,24.50
2022-10-05T07:23:35.005Z,23.63
2022-10-05T07:26:40.085Z,21.45
2022-10-05T07:29:07.819Z,61.83
2022-10-05T07:31:50.054Z,26.27
2022-10-05T07:34:42.697Z,23.70
2022-10-05T07:37:35.833Z,24.65
2022-10-05T07:40:18.150Z,23.33
2022-10-05T07:45:26.696Z,19.85
2022-10-05T07:50:31.121Z,20.73
2022-10-05T07:53:05.257Z,22.42
2022-10-05T07:55:50.292Z,20.10
2022-10-05T07:58:31.904Z,18.48
2022-10-05T08:03:54.177Z,20.50
2022-10-05T08:06:50.064Z,25.63
2022-10-05T08:09:24.014Z,16.52
2022-10-05T08:11:57.693Z,24.35
2022-10-05T08:14:51.370Z,21.05
2022-10-05T08:17:40.814Z,15.93
2022-10-05T08:20:21.196Z,18.27
2022-10-05T08:22:57.875Z,16.80
2022-10-05T08:25:33.666Z,20.88
2022-10-05T08:28:13.239Z,16.52
2022-10-05T08:30:56.942Z,19.15
2022-10-05T08:33:26.698Z,21.38
2022-10-05T08:36:05.961Z,17.17
2022-10-05T08:38:34.467Z,22.02
2022-10-05T08:41:32.315Z,19.25
2022-10-05T08:44:05.849Z,21.30
2022-10-05T08:47:07.231Z,21.90
2022-10-05T08:49:55.215Z,27.55
2022-10-05T08:52:29.037Z,16.33
2022-10-05T08:58:06.164Z,17.33
2022-10-05T09:01:05.081Z,14.50
2022-10-05T09:04:07.221Z,13.13
2022-10-05T09:07:09.841Z,15.00
2022-10-05T09:10:06.370Z,12.30
2022-10-05T09:13:01.690Z,14.63
2022-10-05T09:15:32.196Z,13.10
2022-10-05T09:18:32.508Z,15.50
2022-10-05T09:21:21.267Z,14.70
2022-10-05T09:24:00.814Z,18.40
2022-10-05T09:26:52.883Z,11.50
2022-10-05T09:30:05.394Z,13.75
2022-10-05T09:32:51.720Z,17.50
2022-10-05T09:35:45.587Z,13.32
2022-10-05T09:38:50.856Z,16.77
2022-10-05T09:41:40.141Z,12.05
2022-10-05T09:44:18.761Z,16.60
2022-10-05T09:46:55.387Z,15.98
2022-10-05T09:49:33.366Z,14.05
2022-10-05T09:52:31.823Z,14.52
2022-10-05T09:55:20.256Z,13.60
2022-10-05T09:58:12.113Z,12.95
2022-10-05T10:01:09.619Z,16.33
2022-10-05T10:04:10.177Z,17.23
2022-10-05T10:07:04.689Z,14.20
2022-10-05T10:09:53.963Z,10.07
2022-10-05T10:12:38.409Z,13.30
2022-10-05T10:15:40.611Z,11.82
2022-10-05T10:18:40.810Z,10.93
2022-10-05T10:21:34.591Z,11.52
2022-10-05T10:24:16.650Z,15.27
2022-10-05T10:26:52.088Z,13.10
2022-10-05T10:30:03.805Z,8.13
2022-10-05T10:32:46.971Z,11.02
2022-10-05T10:35:26.370Z,16.85
2022-10-05T10:38:30.354Z,14.20
2022-10-05T10:41:21.102Z,9.32
2022-10-05T10:44:34.718Z,13.60
2022-10-05T10:47:05.212Z,18.55
2022-10-05T10:49:35.623Z,8.60
2022-10-05T10:52:27.543Z,9.48
2022-10-05T10:55:33.177Z,13.13
2022-10-05T11:01:36.866Z,17.60
2022-10-05T11:04:27.568Z,15.98
2022-10-05T11:07:26.133Z,12.93
2022-10-05T11:10:18.253Z,9.55
2022-10-05T11:12:45.669Z,11.70
2022-10-05T11:15:42.427Z,15.18
2022-10-05T11:18:28.792Z,13.85
2022-10-05T11:20:59.118Z,11.98
2022-10-05T11:23:29.304Z,13.57
2022-10-05T11:26:11.823Z,18.85
2022-10-05T11:29:00.862Z,17.13
2022-10-05T11:31:43.182Z,16.33
2022-10-05T11:37:11.942Z,18.08
2022-10-05T11:39:58.827Z,21.95
2022-10-05T11:42:58.266Z,23.00
2022-10-05T11:45:40.041Z,20.42
2022-10-05T11:48:24.006Z,15.93
2022-10-05T11:51:04.814Z,21.65
2022-10-05T11:53:57.627Z,16.42
2022-10-05T11:56:33.919Z,15.63
2022-10-05T11:59:31.826Z,14.00
2022-10-05T12:02:05.506Z,16.73
2022-10-05T12:04:49.778Z,18.35
2022-10-05T12:07:30.367Z,16.48
2022-10-05T12:10:14.446Z,20.13
2022-10-05T12:12:52.370Z,17.48
2022-10-05T12:15:24.138Z,16.73
2022-10-05T12:17:56.395Z,23.55
2022-10-05T12:20:45.986Z,20.85
2022-10-05T12:23:44.720Z,21.95
2022-10-05T12:26:25.770Z,15.15
2022-10-05T12:29:17.031Z,21.10
2022-10-05T12:32:29.407Z,16.35
2022-10-05T12:35:29.674Z,19.75
2022-10-05T12:38:51.160Z,22.17
2022-10-05T12:41:26.499Z,15.63
2022-10-05T12:44:12.471Z,22.85
2022-10-05T12:46:58.608Z,15.68
2022-10-05T12:50:01.893Z,16.85
2022-10-05T12:53:03.073Z,18.67
2022-10-05T12:55:40.221Z,15.85
2022-10-05T12:58:10.801Z,15.95
2022-10-05T13:00:57.528Z,19.13
2022-10-05T13:03:37.267Z,17.77
2022-10-05T13:06:38.198Z,22.25
2022-10-05T13:09:26.690Z,16.85
2022-10-05T13:12:03.894Z,21.02
2022-10-05T13:14:46.202Z,19.75
2022-10-05T13:17:26.238Z,23.63
2022-10-05T13:20:03.721Z,20.48
2022-10-05T13:22:43.638Z,18.20
2022-10-05T13:25:14.286Z,20.08
2022-10-05T13:27:57.219Z,21.25
2022-10-05T13:30:26.947Z,22.57
2022-10-05T13:33:00.278Z,17.85
2022-10-05T13:35:52.210Z,22.98
2022-10-05T13:38:31.770Z,17.50
2022-10-05T13:41:11.821Z,27.65
2022-10-05T13:43:57.777Z,23.33
2022-10-05T13:46:50.135Z,19.30
2022-10-05T13:49:43.403Z,20.25
2022-10-05T13:52:28.760Z,18.30
2022-10-05T13:55:05.930Z,20.77
2022-10-05T13:57:51.730Z,19.52
2022-10-05T14:00:26.318Z,19.83
2022-10-05T14:02:57.187Z,21.90
2022-10-05T14:05:28.061Z,23.70
2022-10-05T14:08:17.087Z,25.17
2022-10-05T14:10:47.459Z,20.30
2022-10-05T14:13:46.464Z,21.80
2022-10-05T14:16:16.923Z,22.73
2022-10-05T14:18:58.830Z,23.02
2022-10-05T14:21:30.633Z,27.98
2022-10-05T14:24:45.513Z,18.25
2022-10-05T14:27:31.277Z,19.60
2022-10-05T14:30:01.245Z,17.35
2022-10-05T14:32:46.013Z,20.13
2022-10-05T14:35:22.043Z,17.23
2022-10-05T14:37:56.346Z,21.95
2022-10-05T14:40:39.475Z,19.58
2022-10-05T14:43:15.895Z,18.52
2022-10-05T14:46:02.892Z,18.85
2022-10-05T14:49:17.046Z,18.60
2022-10-05T14:51:44.679Z,20.20
2022-10-05T14:54:47.633Z,20.52
2022-10-05T14:57:39.910Z,19.80
2022-10-05T15:00:18.775Z,15.95
2022-10-05T15:03:04.977Z,22.17
2022-10-05T15:05:48.834Z,15.85
2022-10-05T15:08:36.045Z,16.65
2022-10-05T15:11:15.347Z,19.20
2022-10-05T15:13:46.320Z,20.08
2022-10-05T15:16:38.369Z,16.52
2022-10-05T15:19:22.622Z,21.65
2022-10-05T15:21:50.510Z,23.85
2022-10-05T15:24:45.646Z,25.65
2022-10-05T15:27:37.184Z,21.77
2022-10-05T15:30:13.891Z,17.80
2022-10-05T15:33:05.359Z,17.88
2022-10-05T15:35:56.607Z,21.38
2022-10-05T15:38:27.418Z,20.13
2022-10-05T15:41:16.294Z,19.63
2022-10-05T15:44:10.258Z,26.40
2022-10-05T15:46:58.193Z,21.08
2022-10-05T15:49:54.129Z,21.00
2022-10-05T15:52:42.647Z,24.13
2022-10-05T15:55:32.230Z,21.27
2022-10-05T15:58:17.505Z,22.85
2022-10-05T16:00:52.140Z,21.95
2022-10-05T16:03:37.050Z,29.33
2022-10-05T16:06:42.995Z,34.40
2022-10-05T16:09:30.741Z,29.08
2022-10-05T16:12:19.548Z,30.92
2022-10-05T16:15:04.387Z,33.90
2022-10-05T16:17:56.077Z,23.15
2022-10-05T16:20:41.842Z,29.27
2022-10-05T16:23:25.465Z,19.88
2022-10-05T16:25:56.034Z,21.50
2022-10-05T16:28:42.241Z,21.08
2022-10-05T16:31:19.018Z,17.02
2022-10-05T16:33:54.246Z,20.23
2022-10-05T16:36:55.614Z,25.98
2022-10-05T16:39:41.968Z,24.20
2022-10-05T16:42:21.024Z,18.10
2022-10-05T16:45:06.919Z,18.02
2022-10-05T16:48:02.359Z,19.52
2022-10-05T16:50:55.117Z,16.17
2022-10-05T16:56:00.873Z,20.45
2022-10-05T16:58:59.321Z,25.05
2022-10-05T17:01:45.901Z,25.45
2022-10-05T17:04:41.463Z,30.25
2022-10-05T17:07:24.009Z,24.85
2022-10-05T17:13:24.918Z,44.13
2022-10-05T17:16:04.199Z,43.58
2022-10-05T17:18:54.291Z,39.70
2022-10-05T17:21:38.163Z,54.03
2022-10-05T17:24:08.014Z,52.33
2022-10-05T17:26:59.341Z,35.70
2022-10-05T17:29:44.773Z,28.70
2022-10-05T17:32:34.311Z,19.83
2022-10-05T17:45:08.678Z,19.08
2022-10-05T17:49:16.964Z,24.17
2022-10-05T17:56:44.257Z,16.42
2022-10-05T17:59:51.599Z,16.73
2022-10-05T18:02:47.137Z,20.30
2022-10-05T18:05:27.974Z,23.63
2022-10-05T18:08:16.738Z,24.10
2022-10-05T18:41:41.106Z,30.42
2022-10-05T18:44:14.418Z,29.08
2022-10-05T18:47:09.730Z,30.33
2022-10-05T18:49:59.163Z,30.83
2022-10-05T18:52:49.718Z,28.50
2022-10-05T18:55:41.910Z,33.40
2022-10-05T18:58:25.985Z,30.63
2022-10-05T19:01:26.901Z,29.90
2022-10-05T19:04:09.628Z,32.38
2022-10-05T19:06:42.753Z,30.50
2022-10-05T19:09:43.448Z,33.67
2022-10-05T19:12:22.691Z,32.60
2022-10-05T19:14:59.052Z,39.47
2022-10-05T19:17:38.580Z,38.28
2022-10-05T19:20:13.006Z,34.22
2022-10-05T19:23:13.837Z,40.67
2022-10-05T19:25:54.931Z,32.25
2022-10-05T19:28:36.564Z,35.78
2022-10-05T19:31:13.119Z,39.07
2022-10-05T19:33:52.627Z,37.13
2022-10-05T19:36:29.159Z,38.47
2022-10-05T19:39:14.980Z,38.28
2022-10-05T19:42:09.793Z,35.50
2022-10-05T19:44:49.526Z,36.60
2022-10-05T19:47:53.639Z,39.45
2022-10-05T19:50:23.956Z,39.10
2022-10-05T19:53:07.430Z,42.88
2022-10-05T19:55:41.658Z,34.92
2022-10-05T19:58:18.459Z,40.05
2022-10-05T20:00:55.877Z,40.33
2022-10-05T20:03:27.692Z,38.83
2022-10-05T20:06:02.569Z,39.25
2022-10-05T20:08:47.920Z,39.72
2022-10-05T20:11:22.963Z,36.55
2022-10-05T20:13:53.344Z,32.42
2022-10-05T20:16:51.958Z,42.63
2022-10-05T20:19:54.369Z,41.80
2022-10-05T20:22:34.570Z,48.17
2022-10-05T20:25:18.753Z,38.35
2022-10-05T20:27:55.780Z,44.47
2022-10-05T20:30:25.950Z,37.47
2022-10-05T20:32:59.556Z,43.90
2022-10-05T20:35:30.434Z,40.85
2022-10-05T20:38:01.811Z,46.50
2022-10-05T20:40:30.613Z,46.45
2022-10-05T20:42:58.882Z,39.05
2022-10-05T20:45:26.363Z,41.90
2022-10-05T20:47:53.886Z,46.58
2022-10-05T20:50:22.247Z,48.50
2022-10-05T20:52:49.821Z,50.95
2022-10-05T20:55:17.449Z,42.63
2022-10-05T20:57:46.148Z,45.40
2022-10-05T21:00:13.934Z,44.22
2022-10-05T21:02:41.461Z,48.65
2022-10-05T21:05:09.568Z,47.28
2022-10-05T21:07:37.129Z,53.08
2022-10-05T21:10:04.935Z,45.65
2022-10-05T21:12:36.221Z,48.72
2022-10-05T21:15:04.743Z,49.80
2022-10-05T21:17:34.636Z,44.88
2022-10-05T21:20:02.295Z,45.88
2022-10-05T21:22:29.711Z,49.35
2022-10-05T21:24:57.060Z,51.17
2022-10-05T21:27:24.916Z,51.83
2022-10-05T21:29:52.282Z,47.20
2022-10-05T21:32:19.628Z,46.15
2022-10-05T21:34:47.019Z,45.38
2022-10-05T21:37:15.416Z,47.85
2022-10-05T21:39:42.797Z,48.10
2022-10-05T21:42:10.208Z,49.00
2022-10-05T21:44:37.598Z,49.88
2022-10-05T21:47:06.969Z,51.63
2022-10-05T21:49:35.392Z,50.90
2022-10-05T21:52:04.435Z,50.38
2022-10-05T21:54:32.814Z,54.15
2022-10-05T21:57:00.482Z,50.15
2022-10-05T21:59:30.938Z,51.35
2022-10-05T22:01:58.713Z,51.90
2022-10-05T22:04:26.125Z,50.58
2022-10-05T22:06:55.527Z,47.60
2022-10-05T22:09:23.401Z,48.17
2022-10-05T22:11:51.331Z,50.47
2022-10-05T22:14:19.718Z,51.33
2022-10-05T22:16:47.256Z,47.00
2022-10-05T22:19:18.587Z,47.63
2022-10-05T22:21:46.009Z,47.70
2022-10-05T22:24:13.469Z,44.03
2022-10-05T22:26:43.627Z,52.65
2022-10-05T22:29:11.187Z,53.88
2022-10-05T22:31:39.267Z,55.70
2022-10-05T22:34:06.739Z,42.92
2022-10-05T22:36:35.622Z,46.28
2022-10-05T22:39:03.628Z,43.70
2022-10-05T22:41:31.001Z,41.70
2022-10-05T22:43:58.431Z,46.95
2022-10-05T22:46:26.000Z,45.53
2022-10-05T22:48:53.403Z,44.88
2022-10-05T22:51:20.779Z,43.50
2022-10-05T22:53:48.186Z,42.15
2022-10-05T22:56:16.277Z,44.08
2022-10-05T22:58:44.431Z,41.33
2022-10-05T23:01:14.703Z,46.00
2022-10-05T23:03:42.582Z,42.67
2022-10-05T23:06:20.603Z,44.75
2022-10-05T23:08:48.365Z,38.83
2022-10-05T23:11:23.598Z,43.30
2022-10-05T23:13:58.619Z,40.17
2022-10-05T23:16:30.271Z,42.60
2022-10-05T23:18:59.117Z,40.45
2022-10-05T23:21:29.383Z,42.38
2022-10-05T23:23:56.883Z,48.28
2022-10-05T23:26:25.652Z,41.08
2022-10-05T23:28:53.437Z,42.15
2022-10-05T23:31:24.050Z,42.17
2022-10-05T23:33:52.555Z,40.65
2022-10-05T23:36:22.695Z,41.15
2022-10-05T23:38:50.555Z,41.75
2022-10-05T23:41:19.787Z,43.65
2022-10-05T23:43:47.845Z,40.45
2022-10-05T23:46:16.124Z,47.42
2022-10-05T23:48:43.663Z,40.08
2022-10-05T23:51:12.946Z,44.00
2022-10-05T23:53:40.343Z,42.38
2022-10-05T23:56:07.819Z,43.55
2022-10-05T23:58:35.219Z,41.97
